sensor_id;sensor_type;location;lat;lon;timestamp;pressure;altitude;pressure_sealevel;temperature;humidity
17615;BME280;8926;49.720;6.576;2023-03-14T00:00:34;97724.22;;;11.33;82.84
17615;BME280;8926;49.720;6.576;2023-03-14T00:02:59;97725.06;;;11.33;82.42
17615;BME280;8926;49.720;6.576;2023-03-14T00:05:24;97721.75;;;11.31;82.87
17615;BME280;8926;49.720;6.576;2023-03-14T00:07:50;97729.75;;;11.30;82.55
17615;BME280;8926;49.720;6.576;2023-03-14T00:10:15;97726.16;;;11.31;82.77
17615;BME280;8926;49.720;6.576;2023-03-14T00:12:41;97722.72;;;11.30;82.71
17615;BME280;8926;49.720;6.576;2023-03-14T00:15:07;97718.75;;;11.26;82.89
17615;BME280;8926;49.720;6.576;2023-03-14T00:17:34;97716.25;;;11.25;83.16
17615;BME280;8926;49.720;6.576;2023-03-14T00:20:00;97719.56;;;11.27;83.23
17615;BME280;8926;49.720;6.576;2023-03-14T00:22:35;97711.84;;;11.25;82.97
17615;BME280;8926;49.720;6.576;2023-03-14T00:25:01;97708.56;;;11.23;83.49
17615;BME280;8926;49.720;6.576;2023-03-14T00:27:27;97707.59;;;11.24;84.12
17615;BME280;8926;49.720;6.576;2023-03-14T00:29:52;97716.53;;;11.21;85.11
17615;BME280;8926;49.720;6.576;2023-03-14T00:32:17;97721.41;;;11.07;86.77
17615;BME280;8926;49.720;6.576;2023-03-14T00:34:43;97713.28;;;11.00;87.84
17615;BME280;8926;49.720;6.576;2023-03-14T00:37:08;97705.84;;;10.96;88.16
17615;BME280;8926;49.720;6.576;2023-03-14T00:39:33;97717.97;;;10.97;87.90
17615;BME280;8926;49.720;6.576;2023-03-14T00:41:59;97705.47;;;10.91;88.19
17615;BME280;8926;49.720;6.576;2023-03-14T00:44:24;97722.09;;;10.90;88.44
17615;BME280;8926;49.720;6.576;2023-03-14T00:46:49;97709.03;;;10.90;88.23
17615;BME280;8926;49.720;6.576;2023-03-14T00:49:15;97716.06;;;10.89;88.36
17615;BME280;8926;49.720;6.576;2023-03-14T00:51:40;97713.31;;;10.91;88.10
17615;BME280;8926;49.720;6.576;2023-03-14T00:54:05;97713.03;;;10.84;87.94
17615;BME280;8926;49.720;6.576;2023-03-14T00:56:31;97711.94;;;10.86;87.85
17615;BME280;8926;49.720;6.576;2023-03-14T00:58:56;97699.00;;;10.85;87.68
17615;BME280;8926;49.720;6.576;2023-03-14T01:01:23;97704.78;;;10.88;87.48
17615;BME280;8926;49.720;6.576;2023-03-14T01:03:51;97718.81;;;10.87;87.15
17615;BME280;8926;49.720;6.576;2023-03-14T01:06:20;97715.50;;;10.85;86.98
17615;BME280;8926;49.720;6.576;2023-03-14T01:08:47;97717.16;;;10.86;86.97
17615;BME280;8926;49.720;6.576;2023-03-14T01:11:15;97710.28;;;10.85;86.74
17615;BME280;8926;49.720;6.576;2023-03-14T01:13:41;97711.09;;;10.86;86.88
17615;BME280;8926;49.720;6.576;2023-03-14T01:16:08;97723.22;;;10.87;86.53
17615;BME280;8926;49.720;6.576;2023-03-14T01:18:34;97715.38;;;10.87;86.40
17615;BME280;8926;49.720;6.576;2023-03-14T01:21:04;97722.09;;;10.90;86.15
17615;BME280;8926;49.720;6.576;2023-03-14T01:23:34;97715.25;;;10.88;86.25
17615;BME280;8926;49.720;6.576;2023-03-14T01:25:59;97723.75;;;10.91;85.83
17615;BME280;8926;49.720;6.576;2023-03-14T01:28:24;97727.34;;;10.90;85.43
17615;BME280;8926;49.720;6.576;2023-03-14T01:30:50;97715.91;;;10.91;84.99
17615;BME280;8926;49.720;6.576;2023-03-14T01:33:15;97717.41;;;10.93;84.85
17615;BME280;8926;49.720;6.576;2023-03-14T01:35:40;97709.03;;;10.90;85.19
17615;BME280;8926;49.720;6.576;2023-03-14T01:38:06;97707.09;;;10.92;85.68
17615;BME280;8926;49.720;6.576;2023-03-14T01:40:31;97714.41;;;10.88;85.67
17615;BME280;8926;49.720;6.576;2023-03-14T01:42:58;97708.38;;;10.87;85.82
17615;BME280;8926;49.720;6.576;2023-03-14T01:48:22;97703.13;;;10.87;85.82
17615;BME280;8926;49.720;6.576;2023-03-14T01:50:48;97709.19;;;10.88;85.56
17615;BME280;8926;49.720;6.576;2023-03-14T01:53:14;97715.25;;;10.88;85.23
17615;BME280;8926;49.720;6.576;2023-03-14T01:55:40;97703.13;;;10.87;84.83
17615;BME280;8926;49.720;6.576;2023-03-14T01:58:05;97707.25;;;10.90;84.89
17615;BME280;8926;49.720;6.576;2023-03-14T02:00:31;97702.88;;;10.91;84.96
17615;BME280;8926;49.720;6.576;2023-03-14T02:03:02;97693.38;;;10.90;85.40
17615;BME280;8926;49.720;6.576;2023-03-14T02:05:32;97688.28;;;10.88;86.68
17615;BME280;8926;49.720;6.576;2023-03-14T02:08:01;97686.38;;;10.80;87.72
17615;BME280;8926;49.720;6.576;2023-03-14T02:10:30;97678.38;;;10.72;88.55
17615;BME280;8926;49.720;6.576;2023-03-14T02:12:59;97678.94;;;10.66;89.01
17615;BME280;8926;49.720;6.576;2023-03-14T02:15:26;97663.56;;;10.63;89.83
17615;BME280;8926;49.720;6.576;2023-03-14T02:17:52;97670.16;;;10.58;90.46
17615;BME280;8926;49.720;6.576;2023-03-14T02:20:51;97668.38;;;10.58;90.76
17615;BME280;8926;49.720;6.576;2023-03-14T02:26:15;97653.13;;;10.44;91.40
17615;BME280;8926;49.720;6.576;2023-03-14T02:28:44;97644.59;;;10.42;91.25
17615;BME280;8926;49.720;6.576;2023-03-14T02:31:10;97659.56;;;10.40;91.18
17615;BME280;8926;49.720;6.576;2023-03-14T02:33:37;97645.84;;;10.38;91.50
17615;BME280;8926;49.720;6.576;2023-03-14T02:36:09;97646.69;;;10.38;91.61
17615;BME280;8926;49.720;6.576;2023-03-14T02:38:45;97648.72;;;10.35;91.83
17615;BME280;8926;49.720;6.576;2023-03-14T02:41:11;97645.16;;;10.36;91.92
17615;BME280;8926;49.720;6.576;2023-03-14T02:43:37;97649.00;;;10.32;91.88
17615;BME280;8926;49.720;6.576;2023-03-14T02:46:03;97645.44;;;10.33;92.26
17615;BME280;8926;49.720;6.576;2023-03-14T02:48:34;97636.66;;;10.34;91.83
17615;BME280;8926;49.720;6.576;2023-03-14T02:51:02;97638.00;;;10.28;92.40
17615;BME280;8926;49.720;6.576;2023-03-14T02:53:33;97644.31;;;10.26;92.72
17615;BME280;8926;49.720;6.576;2023-03-14T02:56:00;97641.28;;;10.20;92.76
17615;BME280;8926;49.720;6.576;2023-03-14T02:58:26;97636.31;;;10.17;93.51
17615;BME280;8926;49.720;6.576;2023-03-14T03:00:52;97633.72;;;10.17;93.85
17615;BME280;8926;49.720;6.576;2023-03-14T03:03:17;97628.50;;;10.17;93.56
17615;BME280;8926;49.720;6.576;2023-03-14T03:05:42;97630.03;;;10.20;93.34
17615;BME280;8926;49.720;6.576;2023-03-14T03:08:09;97631.91;;;10.18;93.99
17615;BME280;8926;49.720;6.576;2023-03-14T03:10:34;97619.84;;;10.17;93.63
17615;BME280;8926;49.720;6.576;2023-03-14T03:13:00;97609.66;;;10.14;94.29
17615;BME280;8926;49.720;6.576;2023-03-14T03:15:26;97607.88;;;10.14;94.07
17615;BME280;8926;49.720;6.576;2023-03-14T03:17:51;97608.84;;;10.13;94.60
17615;BME280;8926;49.720;6.576;2023-03-14T03:20:17;97602.00;;;10.12;94.43
17615;BME280;8926;49.720;6.576;2023-03-14T03:22:42;97593.19;;;10.13;94.32
17615;BME280;8926;49.720;6.576;2023-03-14T03:25:09;97594.19;;;10.12;94.71
17615;BME280;8926;49.720;6.576;2023-03-14T03:27:35;97588.28;;;10.10;94.65
17615;BME280;8926;49.720;6.576;2023-03-14T03:30:03;97592.13;;;10.06;94.80
17615;BME280;8926;49.720;6.576;2023-03-14T03:32:29;97593.63;;;10.09;94.86
17615;BME280;8926;49.720;6.576;2023-03-14T03:34:54;97589.38;;;10.08;95.05
17615;BME280;8926;49.720;6.576;2023-03-14T03:37:19;97577.56;;;10.04;94.97
17615;BME280;8926;49.720;6.576;2023-03-14T03:39:44;97579.47;;;10.02;94.68
17615;BME280;8926;49.720;6.576;2023-03-14T03:42:10;97588.41;;;9.99;95.11
17615;BME280;8926;49.720;6.576;2023-03-14T03:44:35;97580.16;;;9.94;95.21
17615;BME280;8926;49.720;6.576;2023-03-14T03:47:01;97586.31;;;9.93;94.82
17615;BME280;8926;49.720;6.576;2023-03-14T03:49:31;97575.19;;;9.91;95.83
17615;BME280;8926;49.720;6.576;2023-03-14T03:51:56;97569.28;;;9.89;95.92
17615;BME280;8926;49.720;6.576;2023-03-14T03:54:21;97567.66;;;9.88;95.52
17615;BME280;8926;49.720;6.576;2023-03-14T03:56:47;97578.75;;;9.90;95.55
17615;BME280;8926;49.720;6.576;2023-03-14T03:59:12;97576.47;;;9.87;95.58
17615;BME280;8926;49.720;6.576;2023-03-14T04:01:37;97580.16;;;9.84;96.22
17615;BME280;8926;49.720;6.576;2023-03-14T04:04:03;97572.84;;;9.88;96.03
17615;BME280;8926;49.720;6.576;2023-03-14T04:06:28;97575.47;;;9.88;96.04
17615;BME280;8926;49.720;6.576;2023-03-14T04:08:54;97587.41;;;9.91;95.70
17615;BME280;8926;49.720;6.576;2023-03-14T04:11:19;97581.38;;;9.90;95.47
17615;BME280;8926;49.720;6.576;2023-03-14T04:13:44;97583.03;;;9.91;94.85
17615;BME280;8926;49.720;6.576;2023-03-14T04:16:16;97579.19;;;9.85;94.38
17615;BME280;8926;49.720;6.576;2023-03-14T04:18:42;97579.34;;;9.84;94.71
17615;BME280;8926;49.720;6.576;2023-03-14T04:21:07;97576.72;;;9.84;94.55
17615;BME280;8926;49.720;6.576;2023-03-14T04:23:32;97575.06;;;9.83;93.99
17615;BME280;8926;49.720;6.576;2023-03-14T04:25:58;97577.69;;;9.83;93.60
17615;BME280;8926;49.720;6.576;2023-03-14T04:28:24;97571.78;;;9.81;93.44
17615;BME280;8926;49.720;6.576;2023-03-14T04:30:49;97572.59;;;9.81;93.76
17615;BME280;8926;49.720;6.576;2023-03-14T04:33:14;97573.00;;;9.77;93.52
17615;BME280;8926;49.720;6.576;2023-03-14T04:35:43;97577.00;;;9.81;93.36
17615;BME280;8926;49.720;6.576;2023-03-14T04:38:08;97576.56;;;9.76;94.00
17615;BME280;8926;49.720;6.576;2023-03-14T04:40:33;97569.56;;;9.76;94.05
17615;BME280;8926;49.720;6.576;2023-03-14T04:42:58;97562.72;;;9.75;94.77
17615;BME280;8926;49.720;6.576;2023-03-14T04:45:24;97551.44;;;9.75;95.19
17615;BME280;8926;49.720;6.576;2023-03-14T04:47:49;97558.72;;;9.71;95.01
17615;BME280;8926;49.720;6.576;2023-03-14T04:50:14;97555.28;;;9.71;95.48
17615;BME280;8926;49.720;6.576;2023-03-14T04:52:40;97539.09;;;9.67;95.42
17615;BME280;8926;49.720;6.576;2023-03-14T04:55:05;97533.59;;;9.70;95.56
17615;BME280;8926;49.720;6.576;2023-03-14T04:57:30;97539.66;;;9.71;94.84
17615;BME280;8926;49.720;6.576;2023-03-14T04:59:56;97534.69;;;9.68;95.18
17615;BME280;8926;49.720;6.576;2023-03-14T05:02:21;97520.69;;;9.69;95.47
17615;BME280;8926;49.720;6.576;2023-03-14T05:04:46;97524.00;;;9.71;95.37
17615;BME280;8926;49.720;6.576;2023-03-14T05:07:12;97536.06;;;9.72;95.10
17615;BME280;8926;49.720;6.576;2023-03-14T05:09:37;97529.91;;;9.73;95.45
17615;BME280;8926;49.720;6.576;2023-03-14T05:12:02;97522.34;;;9.70;95.06
17615;BME280;8926;49.720;6.576;2023-03-14T05:14:28;97529.22;;;9.71;95.19
17615;BME280;8926;49.720;6.576;2023-03-14T05:16:53;97520.69;;;9.69;95.67
17615;BME280;8926;49.720;6.576;2023-03-14T05:19:18;97511.66;;;9.73;95.44
17615;BME280;8926;49.720;6.576;2023-03-14T05:21:44;97515.22;;;9.72;95.37
17615;BME280;8926;49.720;6.576;2023-03-14T05:24:09;97511.38;;;9.76;95.51
17615;BME280;8926;49.720;6.576;2023-03-14T05:26:34;97506.03;;;9.77;95.68
17615;BME280;8926;49.720;6.576;2023-03-14T05:28:59;97493.53;;;9.71;96.02
17615;BME280;8926;49.720;6.576;2023-03-14T05:31:25;97506.84;;;9.68;95.86
17615;BME280;8926;49.720;6.576;2023-03-14T05:33:50;97499.84;;;9.69;96.27
17615;BME280;8926;49.720;6.576;2023-03-14T05:36:15;97500.94;;;9.66;96.18
17615;BME280;8926;49.720;6.576;2023-03-14T05:38:41;97492.97;;;9.68;96.61
17615;BME280;8926;49.720;6.576;2023-03-14T05:41:06;97498.19;;;9.68;96.17
17615;BME280;8926;49.720;6.576;2023-03-14T05:43:32;97494.91;;;9.66;96.68
17615;BME280;8926;49.720;6.576;2023-03-14T05:45:57;97495.59;;;9.68;96.52
17615;BME280;8926;49.720;6.576;2023-03-14T05:48:22;97486.13;;;9.67;96.58
17615;BME280;8926;49.720;6.576;2023-03-14T05:50:48;97487.09;;;9.66;97.11
17615;BME280;8926;49.720;6.576;2023-03-14T05:53:13;97486.13;;;9.67;97.15
17615;BME280;8926;49.720;6.576;2023-03-14T05:55:39;97479.25;;;9.66;97.16
17615;BME280;8926;49.720;6.576;2023-03-14T05:58:05;97480.91;;;9.67;97.35
17615;BME280;8926;49.720;6.576;2023-03-14T06:00:30;97480.91;;;9.67;97.75
17615;BME280;8926;49.720;6.576;2023-03-14T06:02:55;97477.63;;;9.65;97.64
17615;BME280;8926;49.720;6.576;2023-03-14T06:05:21;97481.19;;;9.64;97.93
17615;BME280;8926;49.720;6.576;2023-03-14T06:07:46;97477.63;;;9.65;98.07
17615;BME280;8926;49.720;6.576;2023-03-14T06:10:11;97481.47;;;9.61;97.87
17615;BME280;8926;49.720;6.576;2023-03-14T06:12:37;97475.28;;;9.62;98.13
17615;BME280;8926;49.720;6.576;2023-03-14T06:15:02;97470.75;;;9.64;98.27
17615;BME280;8926;49.720;6.576;2023-03-14T06:17:27;97479.00;;;9.69;97.61
17615;BME280;8926;49.720;6.576;2023-03-14T06:19:53;97484.22;;;9.69;98.35
17615;BME280;8926;49.720;6.576;2023-03-14T06:22:18;97475.44;;;9.70;98.25
17615;BME280;8926;49.720;6.576;2023-03-14T06:24:44;97475.69;;;9.67;98.39
17615;BME280;8926;49.720;6.576;2023-03-14T06:27:09;97479.00;;;9.69;98.71
17615;BME280;8926;49.720;6.576;2023-03-14T06:29:35;97474.75;;;9.68;99.05
17615;BME280;8926;49.720;6.576;2023-03-14T06:32:00;97473.78;;;9.69;98.61
17615;BME280;8926;49.720;6.576;2023-03-14T06:34:25;97469.53;;;9.68;98.54
17615;BME280;8926;49.720;6.576;2023-03-14T06:36:51;97477.34;;;9.68;98.79
17615;BME280;8926;49.720;6.576;2023-03-14T06:39:16;97473.91;;;9.67;98.70
17615;BME280;8926;49.720;6.576;2023-03-14T06:41:41;97473.50;;;9.72;98.44
17615;BME280;8926;49.720;6.576;2023-03-14T06:44:06;97473.78;;;9.69;98.60
17615;BME280;8926;49.720;6.576;2023-03-14T06:46:32;97476.38;;;9.69;98.96
17615;BME280;8926;49.720;6.576;2023-03-14T06:48:57;97473.91;;;9.67;99.30
17615;BME280;8926;49.720;6.576;2023-03-14T06:51:22;97480.63;;;9.70;99.14
17615;BME280;8926;49.720;6.576;2023-03-14T06:53:48;97483.94;;;9.72;99.70
17615;BME280;8926;49.720;6.576;2023-03-14T06:56:13;97480.38;;;9.73;99.50
17615;BME280;8926;49.720;6.576;2023-03-14T06:58:38;97482.16;;;9.72;99.19
17615;BME280;8926;49.720;6.576;2023-03-14T07:01:04;97475.28;;;9.71;99.53
17615;BME280;8926;49.720;6.576;2023-03-14T07:03:29;97482.00;;;9.74;99.45
17615;BME280;8926;49.720;6.576;2023-03-14T07:05:55;97480.91;;;9.76;99.85
17615;BME280;8926;49.720;6.576;2023-03-14T07:08:20;97480.50;;;9.81;99.13
17615;BME280;8926;49.720;6.576;2023-03-14T07:10:46;97481.47;;;9.80;99.38
17615;BME280;8926;49.720;6.576;2023-03-14T07:13:11;97487.50;;;9.80;99.27
17615;BME280;8926;49.720;6.576;2023-03-14T07:15:36;97490.69;;;9.84;99.47
17615;BME280;8926;49.720;6.576;2023-03-14T07:18:02;97485.03;;;9.79;99.60
17615;BME280;8926;49.720;6.576;2023-03-14T07:20:28;97496.84;;;9.83;99.78
17615;BME280;8926;49.720;6.576;2023-03-14T07:22:54;97490.91;;;9.91;99.19
17615;BME280;8926;49.720;6.576;2023-03-14T07:25:19;97502.88;;;9.93;99.45
17615;BME280;8926;49.720;6.576;2023-03-14T07:27:45;97503.41;;;9.97;99.91
17615;BME280;8926;49.720;6.576;2023-03-14T07:30:12;97510.00;;;10.01;99.08
17615;BME280;8926;49.720;6.576;2023-03-14T07:32:37;97501.75;;;10.34;98.68
17615;BME280;8926;49.720;6.576;2023-03-14T07:35:03;97507.13;;;10.33;97.22
17615;BME280;8926;49.720;6.576;2023-03-14T07:37:29;97506.56;;;10.29;97.48
17615;BME280;8926;49.720;6.576;2023-03-14T07:39:54;97508.34;;;10.29;97.40
17615;BME280;8926;49.720;6.576;2023-03-14T07:42:20;97507.81;;;10.25;97.55
17615;BME280;8926;49.720;6.576;2023-03-14T07:44:45;97502.47;;;10.27;97.92
17615;BME280;8926;49.720;6.576;2023-03-14T07:47:10;97516.88;;;10.31;97.35
17615;BME280;8926;49.720;6.576;2023-03-14T07:49:35;97501.22;;;10.31;97.69
17615;BME280;8926;49.720;6.576;2023-03-14T07:52:01;97508.34;;;10.29;97.74
17615;BME280;8926;49.720;6.576;2023-03-14T07:54:26;97511.94;;;10.28;97.88
17615;BME280;8926;49.720;6.576;2023-03-14T07:56:51;97501.78;;;10.25;98.01
17615;BME280;8926;49.720;6.576;2023-03-14T07:59:18;97508.78;;;10.24;97.66
17615;BME280;8926;49.720;6.576;2023-03-14T08:01:43;97511.66;;;10.21;97.81
17615;BME280;8926;49.720;6.576;2023-03-14T08:04:08;97511.25;;;10.26;97.70
17615;BME280;8926;49.720;6.576;2023-03-14T08:06:35;97508.34;;;10.29;98.12
17615;BME280;8926;49.720;6.576;2023-03-14T08:09:00;97499.16;;;10.34;97.87
17615;BME280;8926;49.720;6.576;2023-03-14T08:11:26;97503.38;;;10.45;97.66
17615;BME280;8926;49.720;6.576;2023-03-14T08:13:51;97509.13;;;10.48;97.49
17615;BME280;8926;49.720;6.576;2023-03-14T08:16:17;97501.72;;;10.53;97.41
17615;BME280;8926;49.720;6.576;2023-03-14T08:18:44;97500.59;;;10.56;97.33
17615;BME280;8926;49.720;6.576;2023-03-14T08:21:09;97509.53;;;10.53;97.34
17615;BME280;8926;49.720;6.576;2023-03-14T08:23:34;97500.88;;;10.53;97.67
17615;BME280;8926;49.720;6.576;2023-03-14T08:26:00;97499.50;;;10.59;97.64
17615;BME280;8926;49.720;6.576;2023-03-14T08:28:25;97493.19;;;10.61;97.42
17615;BME280;8926;49.720;6.576;2023-03-14T08:30:56;97492.91;;;10.64;97.32
17615;BME280;8926;49.720;6.576;2023-03-14T08:33:22;97497.03;;;10.57;96.74
17615;BME280;8926;49.720;6.576;2023-03-14T08:35:47;97502.25;;;10.57;97.18
17615;BME280;8926;49.720;6.576;2023-03-14T08:38:12;97497.72;;;10.59;96.89
17615;BME280;8926;49.720;6.576;2023-03-14T08:40:37;97497.59;;;10.51;97.11
17615;BME280;8926;49.720;6.576;2023-03-14T08:43:03;97490.03;;;10.58;96.87
17615;BME280;8926;49.720;6.576;2023-03-14T08:45:28;97488.50;;;10.65;96.76
17615;BME280;8926;49.720;6.576;2023-03-14T08:47:54;97497.53;;;10.70;96.68
17615;BME280;8926;49.720;6.576;2023-03-14T08:50:20;97495.88;;;10.69;96.57
17615;BME280;8926;49.720;6.576;2023-03-14T08:52:45;97490.66;;;10.69;96.80
17615;BME280;8926;49.720;6.576;2023-03-14T08:55:11;97493.25;;;10.69;96.76
17615;BME280;8926;49.720;6.576;2023-03-14T08:57:36;97497.81;;;10.67;97.08
17615;BME280;8926;49.720;6.576;2023-03-14T09:00:04;97498.75;;;10.66;97.70
17615;BME280;8926;49.720;6.576;2023-03-14T09:02:36;97508.38;;;10.66;97.47
17615;BME280;8926;49.720;6.576;2023-03-14T09:05:01;97511.81;;;10.66;97.63
17615;BME280;8926;49.720;6.576;2023-03-14T09:07:27;97513.78;;;10.64;98.36
17615;BME280;8926;49.720;6.576;2023-03-14T09:09:52;97518.69;;;10.67;97.70
17615;BME280;8926;49.720;6.576;2023-03-14T09:12:17;97524.78;;;10.58;98.12
17615;BME280;8926;49.720;6.576;2023-03-14T09:14:43;97524.78;;;10.58;98.17
17615;BME280;8926;49.720;6.576;2023-03-14T09:17:08;97536.88;;;10.59;98.39
17615;BME280;8926;49.720;6.576;2023-03-14T09:19:33;97535.91;;;10.60;98.72
17615;BME280;8926;49.720;6.576;2023-03-14T09:21:59;97538.53;;;10.60;98.69
17615;BME280;8926;49.720;6.576;2023-03-14T09:24:24;97545.13;;;10.64;99.10
17615;BME280;8926;49.720;6.576;2023-03-14T09:26:49;97542.19;;;10.67;99.24
17615;BME280;8926;49.720;6.576;2023-03-14T09:29:15;97540.94;;;10.71;98.64
17615;BME280;8926;49.720;6.576;2023-03-14T09:31:40;97545.88;;;10.74;98.40
17615;BME280;8926;49.720;6.576;2023-03-14T09:34:05;97545.59;;;10.77;98.31
17615;BME280;8926;49.720;6.576;2023-03-14T09:36:31;97550.28;;;10.83;98.45
17615;BME280;8926;49.720;6.576;2023-03-14T09:38:56;97565.38;;;10.90;98.53
17615;BME280;8926;49.720;6.576;2023-03-14T09:41:27;97567.03;;;10.91;98.19
17615;BME280;8926;49.720;6.576;2023-03-14T09:44:02;97580.19;;;10.99;98.38
17615;BME280;8926;49.720;6.576;2023-03-14T09:46:29;97587.72;;;11.02;97.62
17615;BME280;8926;49.720;6.576;2023-03-14T09:48:55;97586.78;;;11.03;96.69
17615;BME280;8926;49.720;6.576;2023-03-14T09:51:20;97626.38;;;11.08;96.57
17615;BME280;8926;49.720;6.576;2023-03-14T09:53:50;97631.84;;;11.14;95.24
17615;BME280;8926;49.720;6.576;2023-03-14T09:56:20;97659.59;;;11.25;94.45
17615;BME280;8926;49.720;6.576;2023-03-14T09:58:51;97676.34;;;11.32;92.21
17615;BME280;8926;49.720;6.576;2023-03-14T10:01:24;97707.19;;;11.29;87.83
17615;BME280;8926;49.720;6.576;2023-03-14T10:03:50;97721.19;;;11.37;88.18
17615;BME280;8926;49.720;6.576;2023-03-14T10:06:19;97743.47;;;11.41;85.81
17615;BME280;8926;49.720;6.576;2023-03-14T10:08:44;97760.50;;;11.45;84.42
17615;BME280;8926;49.720;6.576;2023-03-14T10:11:15;97764.09;;;11.44;81.99
17615;BME280;8926;49.720;6.576;2023-03-14T10:16:34;97809.53;;;11.34;79.58
17615;BME280;8926;49.720;6.576;2023-03-14T10:19:05;97826.44;;;11.20;79.86
17615;BME280;8926;49.720;6.576;2023-03-14T10:21:39;97835.94;;;11.02;77.22
17615;BME280;8926;49.720;6.576;2023-03-14T10:24:09;97855.47;;;10.88;77.74
17615;BME280;8926;49.720;6.576;2023-03-14T10:26:35;97873.31;;;10.83;78.71
17615;BME280;8926;49.720;6.576;2023-03-14T10:29:10;97870.03;;;10.81;79.14
17615;BME280;8926;49.720;6.576;2023-03-14T10:34:37;97895.28;;;10.71;77.03
17615;BME280;8926;49.720;6.576;2023-03-14T10:37:22;97890.75;;;10.63;76.41
17615;BME280;8926;49.720;6.576;2023-03-14T10:39:53;97891.16;;;10.68;78.31
17615;BME280;8926;49.720;6.576;2023-03-14T10:42:28;97908.25;;;10.92;78.27
17615;BME280;8926;49.720;6.576;2023-03-14T10:45:02;97922.88;;;11.13;75.61
17615;BME280;8926;49.720;6.576;2023-03-14T10:47:29;97915.06;;;11.62;75.07
17615;BME280;8926;49.720;6.576;2023-03-14T10:49:57;97935.09;;;12.29;73.13
17615;BME280;8926;49.720;6.576;2023-03-14T10:52:47;97940.88;;;12.32;69.91
17615;BME280;8926;49.720;6.576;2023-03-14T10:55:13;97948.50;;;12.06;71.15
17615;BME280;8926;49.720;6.576;2023-03-14T10:57:40;97956.75;;;11.73;71.75
17615;BME280;8926;49.720;6.576;2023-03-14T11:00:09;97969.56;;;11.37;72.05
17615;BME280;8926;49.720;6.576;2023-03-14T11:02:49;97984.19;;;11.00;72.70
17615;BME280;8926;49.720;6.576;2023-03-14T11:05:35;97998.31;;;10.87;73.07
17615;BME280;8926;49.720;6.576;2023-03-14T11:08:10;98005.22;;;10.68;73.86
17615;BME280;8926;49.720;6.576;2023-03-14T11:10:39;98011.56;;;10.65;73.92
17615;BME280;8926;49.720;6.576;2023-03-14T11:13:26;98033.03;;;10.48;73.67
17615;BME280;8926;49.720;6.576;2023-03-14T11:16:34;98033.72;;;10.50;74.27
17615;BME280;8926;49.720;6.576;2023-03-14T11:19:27;98035.13;;;10.54;73.96
17615;BME280;8926;49.720;6.576;2023-03-14T11:24:33;98065.63;;;11.05;73.46
17615;BME280;8926;49.720;6.576;2023-03-14T11:33:04;98106.94;;;11.20;72.01
17615;BME280;8926;49.720;6.576;2023-03-14T11:35:37;98125.50;;;11.17;72.54
17615;BME280;8926;49.720;6.576;2023-03-14T11:40:48;98134.31;;;10.96;72.21
17615;BME280;8926;49.720;6.576;2023-03-14T11:43:39;98146.00;;;10.71;71.30
17615;BME280;8926;49.720;6.576;2023-03-14T11:49:01;98175.13;;;11.08;70.80
17615;BME280;8926;49.720;6.576;2023-03-14T11:51:36;98183.59;;;11.51;69.29
17615;BME280;8926;49.720;6.576;2023-03-14T11:56:38;98191.25;;;11.43;66.49
17615;BME280;8926;49.720;6.576;2023-03-14T11:59:31;98202.44;;;11.25;67.66
17615;BME280;8926;49.720;6.576;2023-03-14T12:02:02;98202.56;;;11.23;68.44
17615;BME280;8926;49.720;6.576;2023-03-14T12:04:39;98217.13;;;11.16;66.54
17615;BME280;8926;49.720;6.576;2023-03-14T12:07:23;98221.53;;;11.15;68.34
17615;BME280;8926;49.720;6.576;2023-03-14T12:09:51;98233.78;;;11.15;67.34
17615;BME280;8926;49.720;6.576;2023-03-14T12:12:25;98234.72;;;11.35;67.58
17615;BME280;8926;49.720;6.576;2023-03-14T12:14:55;98243.72;;;11.51;65.94
17615;BME280;8926;49.720;6.576;2023-03-14T12:17:25;98248.63;;;11.66;68.24
17615;BME280;8926;49.720;6.576;2023-03-14T12:20:02;98265.19;;;11.76;62.79
17615;BME280;8926;49.720;6.576;2023-03-14T12:22:35;98260.16;;;12.14;63.29
17615;BME280;8926;49.720;6.576;2023-03-14T12:25:05;98263.00;;;12.61;60.46
17615;BME280;8926;49.720;6.576;2023-03-14T12:41:19;98310.16;;;11.39;57.45
17615;BME280;8926;49.720;6.576;2023-03-14T12:43:46;98314.69;;;11.37;56.76
17615;BME280;8926;49.720;6.576;2023-03-14T12:48:50;98330.25;;;11.07;55.79
17615;BME280;8926;49.720;6.576;2023-03-14T12:51:20;98335.31;;;10.87;54.31
17615;BME280;8926;49.720;6.576;2023-03-14T13:02:10;98329.19;;;11.72;54.06
17615;BME280;8926;49.720;6.576;2023-03-14T13:04:47;98340.03;;;12.09;54.32
17615;BME280;8926;49.720;6.576;2023-03-14T13:10:00;98334.16;;;11.96;51.34
17615;BME280;8926;49.720;6.576;2023-03-14T13:12:29;98346.19;;;11.77;51.71
17615;BME280;8926;49.720;6.576;2023-03-14T13:14:58;98363.97;;;11.63;51.07
17615;BME280;8926;49.720;6.576;2023-03-14T13:17:29;98360.81;;;11.27;50.64
17615;BME280;8926;49.720;6.576;2023-03-14T13:19:57;98381.50;;;11.30;51.21
17615;BME280;8926;49.720;6.576;2023-03-14T13:22:28;98389.16;;;11.11;51.18
17615;BME280;8926;49.720;6.576;2023-03-14T13:25:06;98393.91;;;11.17;53.18
17615;BME280;8926;49.720;6.576;2023-03-14T13:27:34;98391.13;;;11.18;51.64
17615;BME280;8926;49.720;6.576;2023-03-14T13:30:05;98391.72;;;11.22;52.91
17615;BME280;8926;49.720;6.576;2023-03-14T13:32:31;98390.84;;;11.12;52.49
17615;BME280;8926;49.720;6.576;2023-03-14T13:34:57;98389.47;;;11.17;52.13
17615;BME280;8926;49.720;6.576;2023-03-14T13:37:25;98390.06;;;11.21;52.28
17615;BME280;8926;49.720;6.576;2023-03-14T13:39:55;98391.25;;;11.28;52.92
17615;BME280;8926;49.720;6.576;2023-03-14T13:42:21;98400.63;;;11.31;51.99
17615;BME280;8926;49.720;6.576;2023-03-14T13:44:51;98401.19;;;11.34;52.34
17615;BME280;8926;49.720;6.576;2023-03-14T13:47:20;98389.47;;;11.49;51.99
17615;BME280;8926;49.720;6.576;2023-03-14T13:49:46;98392.56;;;11.54;50.05
17615;BME280;8926;49.720;6.576;2023-03-14T13:52:30;98395.63;;;11.60;49.56
17615;BME280;8926;49.720;6.576;2023-03-14T13:54:56;98389.63;;;11.69;50.07
17615;BME280;8926;49.720;6.576;2023-03-14T13:57:22;98398.41;;;11.79;49.83
17615;BME280;8926;49.720;6.576;2023-03-14T14:00:07;98413.13;;;11.80;48.53
17615;BME280;8926;49.720;6.576;2023-03-14T14:02:36;98400.75;;;11.82;50.23
17615;BME280;8926;49.720;6.576;2023-03-14T14:05:03;98394.16;;;11.67;49.00
17615;BME280;8926;49.720;6.576;2023-03-14T14:07:29;98411.25;;;11.71;50.29
17615;BME280;8926;49.720;6.576;2023-03-14T14:09:54;98406.44;;;11.87;49.95
17615;BME280;8926;49.720;6.576;2023-03-14T14:12:46;98407.41;;;11.86;48.81